sensor_id;sensor_type;location;lat;lon;timestamp;P1;durP1;ratioP1;P2;durP2;ratioP2
14191;SDS011;7177;48.572;7.838;2022-12-24T00:00:35;5.73;;;2.10;;
14191;SDS011;7177;48.572;7.838;2022-12-24T00:03:01;8.27;;;2.43;;
14191;SDS011;7177;48.572;7.838;2022-12-24T00:05:26;7.93;;;2.67;;
14191;SDS011;7177;48.572;7.838;2022-12-24T00:07:52;10.27;;;2.53;;
14191;SDS011;7177;48.572;7.838;2022-12-24T00:10:17;8.40;;;2.60;;
14191;SDS011;7177;48.572;7.838;2022-12-24T00:12:43;10.40;;;2.70;;
14191;SDS011;7177;48.572;7.838;2022-12-24T00:15:09;12.27;;;2.50;;
14191;SDS011;7177;48.572;7.838;2022-12-24T00:17:35;10.77;;;2.90;;
14191;SDS011;7177;48.572;7.838;2022-12-24T00:20:00;8.27;;;2.37;;
14191;SDS011;7177;48.572;7.838;2022-12-24T00:22:26;9.73;;;2.53;;
14191;SDS011;7177;48.572;7.838;2022-12-24T00:24:51;10.47;;;2.80;;
14191;SDS011;7177;48.572;7.838;2022-12-24T00:27:17;13.53;;;2.97;;
14191;SDS011;7177;48.572;7.838;2022-12-24T00:29:43;7.97;;;2.50;;
14191;SDS011;7177;48.572;7.838;2022-12-24T00:32:08;6.67;;;2.40;;
14191;SDS011;7177;48.572;7.838;2022-12-24T00:34:34;11.37;;;2.93;;
14191;SDS011;7177;48.572;7.838;2022-12-24T00:37:00;6.00;;;2.37;;
14191;SDS011;7177;48.572;7.838;2022-12-24T00:39:26;9.03;;;2.80;;
14191;SDS011;7177;48.572;7.838;2022-12-24T00:41:52;11.70;;;3.13;;
14191;SDS011;7177;48.572;7.838;2022-12-24T00:44:18;11.87;;;2.97;;
14191;SDS011;7177;48.572;7.838;2022-12-24T00:46:43;13.40;;;2.80;;
14191;SDS011;7177;48.572;7.838;2022-12-24T00:49:10;7.33;;;2.43;;
14191;SDS011;7177;48.572;7.838;2022-12-24T00:51:36;8.30;;;2.20;;
14191;SDS011;7177;48.572;7.838;2022-12-24T00:54:02;9.37;;;2.47;;
14191;SDS011;7177;48.572;7.838;2022-12-24T00:56:28;10.73;;;3.53;;
14191;SDS011;7177;48.572;7.838;2022-12-24T00:58:54;8.03;;;2.33;;
14191;SDS011;7177;48.572;7.838;2022-12-24T01:01:19;11.37;;;2.87;;
14191;SDS011;7177;48.572;7.838;2022-12-24T01:03:45;9.57;;;2.50;;
14191;SDS011;7177;48.572;7.838;2022-12-24T01:06:12;7.87;;;2.60;;
14191;SDS011;7177;48.572;7.838;2022-12-24T01:08:40;9.40;;;3.10;;
14191;SDS011;7177;48.572;7.838;2022-12-24T01:11:06;8.50;;;2.30;;
14191;SDS011;7177;48.572;7.838;2022-12-24T01:13:33;11.27;;;2.90;;
14191;SDS011;7177;48.572;7.838;2022-12-24T01:15:59;7.07;;;2.37;;
14191;SDS011;7177;48.572;7.838;2022-12-24T01:18:25;7.33;;;2.57;;
14191;SDS011;7177;48.572;7.838;2022-12-24T01:20:55;8.00;;;2.40;;
14191;SDS011;7177;48.572;7.838;2022-12-24T01:23:25;7.80;;;2.17;;
14191;SDS011;7177;48.572;7.838;2022-12-24T01:25:51;10.40;;;3.07;;
14191;SDS011;7177;48.572;7.838;2022-12-24T01:28:17;8.50;;;2.80;;
14191;SDS011;7177;48.572;7.838;2022-12-24T01:30:43;7.83;;;2.70;;
14191;SDS011;7177;48.572;7.838;2022-12-24T01:33:08;15.40;;;2.70;;
14191;SDS011;7177;48.572;7.838;2022-12-24T01:35:37;8.73;;;2.67;;
14191;SDS011;7177;48.572;7.838;2022-12-24T01:38:03;9.20;;;2.57;;
14191;SDS011;7177;48.572;7.838;2022-12-24T01:40:29;10.87;;;3.43;;
14191;SDS011;7177;48.572;7.838;2022-12-24T01:43:18;8.27;;;2.57;;
14191;SDS011;7177;48.572;7.838;2022-12-24T01:45:50;10.00;;;2.70;;
14191;SDS011;7177;48.572;7.838;2022-12-24T01:48:27;9.30;;;2.93;;
14191;SDS011;7177;48.572;7.838;2022-12-24T01:51:05;11.20;;;3.43;;
14191;SDS011;7177;48.572;7.838;2022-12-24T01:54:04;6.77;;;2.60;;
14191;SDS011;7177;48.572;7.838;2022-12-24T01:56:31;9.67;;;3.00;;
14191;SDS011;7177;48.572;7.838;2022-12-24T01:59:07;6.07;;;2.17;;
14191;SDS011;7177;48.572;7.838;2022-12-24T02:01:37;6.30;;;2.17;;
14191;SDS011;7177;48.572;7.838;2022-12-24T02:04:04;9.00;;;2.70;;
14191;SDS011;7177;48.572;7.838;2022-12-24T02:06:50;11.73;;;2.77;;
14191;SDS011;7177;48.572;7.838;2022-12-24T02:09:16;12.63;;;2.97;;
14191;SDS011;7177;48.572;7.838;2022-12-24T02:11:42;12.80;;;3.20;;
14191;SDS011;7177;48.572;7.838;2022-12-24T02:14:08;6.63;;;2.37;;
14191;SDS011;7177;48.572;7.838;2022-12-24T02:19:54;14.93;;;3.17;;
14191;SDS011;7177;48.572;7.838;2022-12-24T02:28:21;13.73;;;3.07;;
14191;SDS011;7177;48.572;7.838;2022-12-24T02:34:07;9.47;;;2.90;;
14191;SDS011;7177;48.572;7.838;2022-12-24T02:39:34;12.97;;;2.70;;
14191;SDS011;7177;48.572;7.838;2022-12-24T02:42:04;14.20;;;3.27;;
14191;SDS011;7177;48.572;7.838;2022-12-24T02:47:32;11.60;;;3.27;;
14191;SDS011;7177;48.572;7.838;2022-12-24T02:49:59;7.07;;;2.73;;
14191;SDS011;7177;48.572;7.838;2022-12-24T02:52:29;9.30;;;2.67;;
14191;SDS011;7177;48.572;7.838;2022-12-24T02:54:55;10.80;;;3.17;;
14191;SDS011;7177;48.572;7.838;2022-12-24T02:57:29;15.27;;;3.43;;
14191;SDS011;7177;48.572;7.838;2022-12-24T03:00:18;12.00;;;2.83;;
14191;SDS011;7177;48.572;7.838;2022-12-24T03:08:19;15.10;;;3.17;;
14191;SDS011;7177;48.572;7.838;2022-12-24T03:10:55;17.80;;;3.47;;
14191;SDS011;7177;48.572;7.838;2022-12-24T03:13:25;14.60;;;3.67;;
14191;SDS011;7177;48.572;7.838;2022-12-24T03:15:52;11.53;;;3.27;;
14191;SDS011;7177;48.572;7.838;2022-12-24T03:18:18;16.80;;;3.07;;
14191;SDS011;7177;48.572;7.838;2022-12-24T03:20:53;9.10;;;2.67;;
14191;SDS011;7177;48.572;7.838;2022-12-24T03:23:24;13.07;;;3.27;;
14191;SDS011;7177;48.572;7.838;2022-12-24T03:25:50;13.63;;;3.03;;
14191;SDS011;7177;48.572;7.838;2022-12-24T03:28:16;12.17;;;2.97;;
14191;SDS011;7177;48.572;7.838;2022-12-24T03:30:44;10.53;;;3.07;;
14191;SDS011;7177;48.572;7.838;2022-12-24T03:33:12;11.43;;;2.80;;
14191;SDS011;7177;48.572;7.838;2022-12-24T03:35:38;13.63;;;3.27;;
14191;SDS011;7177;48.572;7.838;2022-12-24T03:38:03;10.50;;;2.47;;
14191;SDS011;7177;48.572;7.838;2022-12-24T03:40:29;7.80;;;2.17;;
14191;SDS011;7177;48.572;7.838;2022-12-24T03:42:55;11.03;;;2.70;;
14191;SDS011;7177;48.572;7.838;2022-12-24T03:45:21;11.03;;;2.60;;
14191;SDS011;7177;48.572;7.838;2022-12-24T03:47:46;12.90;;;2.97;;
14191;SDS011;7177;48.572;7.838;2022-12-24T03:50:12;10.53;;;2.70;;
14191;SDS011;7177;48.572;7.838;2022-12-24T03:52:37;11.73;;;3.00;;
14191;SDS011;7177;48.572;7.838;2022-12-24T03:55:03;11.27;;;3.50;;
14191;SDS011;7177;48.572;7.838;2022-12-24T03:57:29;9.53;;;2.80;;
14191;SDS011;7177;48.572;7.838;2022-12-24T03:59:54;11.97;;;2.90;;
14191;SDS011;7177;48.572;7.838;2022-12-24T04:02:20;15.30;;;3.23;;
14191;SDS011;7177;48.572;7.838;2022-12-24T04:04:45;8.70;;;2.70;;
14191;SDS011;7177;48.572;7.838;2022-12-24T04:07:11;10.43;;;2.43;;
14191;SDS011;7177;48.572;7.838;2022-12-24T04:09:36;9.70;;;2.67;;
14191;SDS011;7177;48.572;7.838;2022-12-24T04:12:03;14.10;;;3.33;;
14191;SDS011;7177;48.572;7.838;2022-12-24T04:14:28;16.33;;;3.53;;
14191;SDS011;7177;48.572;7.838;2022-12-24T04:16:54;13.27;;;3.13;;
14191;SDS011;7177;48.572;7.838;2022-12-24T04:21:45;12.67;;;2.80;;
14191;SDS011;7177;48.572;7.838;2022-12-24T04:24:11;15.70;;;3.20;;
14191;SDS011;7177;48.572;7.838;2022-12-24T04:26:37;6.80;;;2.57;;
14191;SDS011;7177;48.572;7.838;2022-12-24T04:29:02;10.77;;;2.87;;
14191;SDS011;7177;48.572;7.838;2022-12-24T04:31:28;10.03;;;2.73;;
14191;SDS011;7177;48.572;7.838;2022-12-24T04:33:53;11.20;;;3.10;;
14191;SDS011;7177;48.572;7.838;2022-12-24T04:36:19;10.67;;;2.70;;
14191;SDS011;7177;48.572;7.838;2022-12-24T04:38:45;7.23;;;2.43;;
14191;SDS011;7177;48.572;7.838;2022-12-24T04:41:13;13.33;;;3.30;;
14191;SDS011;7177;48.572;7.838;2022-12-24T04:43:40;11.03;;;2.63;;
14191;SDS011;7177;48.572;7.838;2022-12-24T04:46:07;11.37;;;3.20;;
14191;SDS011;7177;48.572;7.838;2022-12-24T04:48:35;12.47;;;3.07;;
14191;SDS011;7177;48.572;7.838;2022-12-24T04:51:04;11.23;;;2.70;;
14191;SDS011;7177;48.572;7.838;2022-12-24T04:53:30;15.80;;;3.40;;
14191;SDS011;7177;48.572;7.838;2022-12-24T04:55:57;11.73;;;3.10;;
14191;SDS011;7177;48.572;7.838;2022-12-24T04:58:22;9.47;;;2.70;;
14191;SDS011;7177;48.572;7.838;2022-12-24T05:00:48;9.77;;;2.87;;
14191;SDS011;7177;48.572;7.838;2022-12-24T05:03:14;14.10;;;3.30;;
14191;SDS011;7177;48.572;7.838;2022-12-24T05:05:40;11.57;;;2.73;;
14191;SDS011;7177;48.572;7.838;2022-12-24T05:08:05;12.20;;;3.30;;
14191;SDS011;7177;48.572;7.838;2022-12-24T05:10:31;12.33;;;2.77;;
14191;SDS011;7177;48.572;7.838;2022-12-24T05:12:56;10.97;;;2.80;;
14191;SDS011;7177;48.572;7.838;2022-12-24T05:15:22;10.30;;;2.63;;
14191;SDS011;7177;48.572;7.838;2022-12-24T05:17:48;13.40;;;2.67;;
14191;SDS011;7177;48.572;7.838;2022-12-24T05:20:13;13.47;;;2.90;;
14191;SDS011;7177;48.572;7.838;2022-12-24T05:22:40;13.00;;;2.60;;
14191;SDS011;7177;48.572;7.838;2022-12-24T05:25:24;9.13;;;3.07;;
14191;SDS011;7177;48.572;7.838;2022-12-24T05:28:12;13.90;;;3.27;;
14191;SDS011;7177;48.572;7.838;2022-12-24T05:30:39;13.53;;;2.67;;
14191;SDS011;7177;48.572;7.838;2022-12-24T05:33:04;9.90;;;2.77;;
14191;SDS011;7177;48.572;7.838;2022-12-24T05:35:29;11.23;;;3.23;;
14191;SDS011;7177;48.572;7.838;2022-12-24T05:37:58;8.67;;;2.83;;
14191;SDS011;7177;48.572;7.838;2022-12-24T05:40:23;12.70;;;3.30;;
14191;SDS011;7177;48.572;7.838;2022-12-24T05:42:49;13.00;;;2.90;;
14191;SDS011;7177;48.572;7.838;2022-12-24T05:45:15;11.27;;;2.93;;
14191;SDS011;7177;48.572;7.838;2022-12-24T05:47:40;15.57;;;3.63;;
14191;SDS011;7177;48.572;7.838;2022-12-24T05:50:06;17.67;;;3.53;;
14191;SDS011;7177;48.572;7.838;2022-12-24T05:52:32;10.50;;;3.50;;
14191;SDS011;7177;48.572;7.838;2022-12-24T05:54:58;12.27;;;3.03;;
14191;SDS011;7177;48.572;7.838;2022-12-24T05:57:23;18.57;;;3.47;;
14191;SDS011;7177;48.572;7.838;2022-12-24T05:59:49;12.63;;;3.20;;
14191;SDS011;7177;48.572;7.838;2022-12-24T06:02:14;14.03;;;3.30;;
14191;SDS011;7177;48.572;7.838;2022-12-24T06:04:40;11.57;;;3.23;;
14191;SDS011;7177;48.572;7.838;2022-12-24T06:07:05;15.13;;;3.17;;
14191;SDS011;7177;48.572;7.838;2022-12-24T06:09:31;15.83;;;3.73;;
14191;SDS011;7177;48.572;7.838;2022-12-24T06:11:56;13.17;;;2.90;;
14191;SDS011;7177;48.572;7.838;2022-12-24T06:14:22;16.57;;;4.17;;
14191;SDS011;7177;48.572;7.838;2022-12-24T06:16:48;17.07;;;3.50;;
14191;SDS011;7177;48.572;7.838;2022-12-24T06:19:13;16.37;;;3.77;;
14191;SDS011;7177;48.572;7.838;2022-12-24T06:21:39;14.53;;;3.50;;
14191;SDS011;7177;48.572;7.838;2022-12-24T06:24:04;13.90;;;3.57;;
14191;SDS011;7177;48.572;7.838;2022-12-24T06:26:30;15.20;;;3.47;;
14191;SDS011;7177;48.572;7.838;2022-12-24T06:28:56;15.43;;;3.10;;
14191;SDS011;7177;48.572;7.838;2022-12-24T06:31:21;18.00;;;3.77;;
14191;SDS011;7177;48.572;7.838;2022-12-24T06:33:47;13.43;;;3.93;;
14191;SDS011;7177;48.572;7.838;2022-12-24T06:36:15;12.77;;;3.33;;
14191;SDS011;7177;48.572;7.838;2022-12-24T06:38:42;11.97;;;3.30;;
14191;SDS011;7177;48.572;7.838;2022-12-24T06:41:07;16.90;;;3.93;;
14191;SDS011;7177;48.572;7.838;2022-12-24T06:43:33;11.30;;;3.47;;
14191;SDS011;7177;48.572;7.838;2022-12-24T06:45:59;13.27;;;3.00;;
14191;SDS011;7177;48.572;7.838;2022-12-24T06:48:25;17.77;;;3.80;;
14191;SDS011;7177;48.572;7.838;2022-12-24T06:50:51;14.97;;;4.03;;
14191;SDS011;7177;48.572;7.838;2022-12-24T06:53:17;11.40;;;3.00;;
14191;SDS011;7177;48.572;7.838;2022-12-24T06:55:42;14.87;;;3.53;;
14191;SDS011;7177;48.572;7.838;2022-12-24T06:58:08;18.83;;;4.27;;
14191;SDS011;7177;48.572;7.838;2022-12-24T07:00:33;15.93;;;3.63;;
14191;SDS011;7177;48.572;7.838;2022-12-24T07:02:59;13.83;;;3.50;;
14191;SDS011;7177;48.572;7.838;2022-12-24T07:05:25;13.97;;;4.03;;
14191;SDS011;7177;48.572;7.838;2022-12-24T07:07:51;11.73;;;3.70;;
14191;SDS011;7177;48.572;7.838;2022-12-24T07:10:17;13.10;;;3.30;;
14191;SDS011;7177;48.572;7.838;2022-12-24T07:12:43;14.70;;;3.37;;
14191;SDS011;7177;48.572;7.838;2022-12-24T07:15:09;13.63;;;3.57;;
14191;SDS011;7177;48.572;7.838;2022-12-24T07:17:36;12.90;;;3.77;;
14191;SDS011;7177;48.572;7.838;2022-12-24T07:20:02;13.97;;;3.30;;
14191;SDS011;7177;48.572;7.838;2022-12-24T07:22:28;13.07;;;3.00;;
14191;SDS011;7177;48.572;7.838;2022-12-24T07:24:53;21.47;;;4.40;;
14191;SDS011;7177;48.572;7.838;2022-12-24T07:27:19;9.30;;;3.00;;
14191;SDS011;7177;48.572;7.838;2022-12-24T07:29:44;13.87;;;4.20;;
14191;SDS011;7177;48.572;7.838;2022-12-24T07:32:10;17.93;;;3.73;;
14191;SDS011;7177;48.572;7.838;2022-12-24T07:34:35;21.40;;;4.07;;
14191;SDS011;7177;48.572;7.838;2022-12-24T07:37:01;10.40;;;3.20;;
14191;SDS011;7177;48.572;7.838;2022-12-24T07:39:27;10.80;;;3.30;;
14191;SDS011;7177;48.572;7.838;2022-12-24T07:41:52;11.93;;;3.30;;
14191;SDS011;7177;48.572;7.838;2022-12-24T07:44:18;9.70;;;3.00;;
14191;SDS011;7177;48.572;7.838;2022-12-24T07:46:43;13.73;;;3.40;;
14191;SDS011;7177;48.572;7.838;2022-12-24T07:49:09;16.27;;;3.33;;
14191;SDS011;7177;48.572;7.838;2022-12-24T07:51:35;15.80;;;3.70;;
14191;SDS011;7177;48.572;7.838;2022-12-24T07:54:01;14.63;;;3.87;;
14191;SDS011;7177;48.572;7.838;2022-12-24T07:56:28;13.67;;;4.10;;
14191;SDS011;7177;48.572;7.838;2022-12-24T07:58:57;15.93;;;3.50;;
14191;SDS011;7177;48.572;7.838;2022-12-24T08:01:22;10.77;;;3.10;;
14191;SDS011;7177;48.572;7.838;2022-12-24T08:03:48;17.27;;;3.70;;
14191;SDS011;7177;48.572;7.838;2022-12-24T08:06:18;12.57;;;3.50;;
14191;SDS011;7177;48.572;7.838;2022-12-24T08:08:47;11.97;;;3.33;;
14191;SDS011;7177;48.572;7.838;2022-12-24T08:11:13;11.00;;;3.13;;
14191;SDS011;7177;48.572;7.838;2022-12-24T08:13:38;9.83;;;3.20;;
14191;SDS011;7177;48.572;7.838;2022-12-24T08:16:04;14.67;;;3.37;;
14191;SDS011;7177;48.572;7.838;2022-12-24T08:18:30;13.83;;;3.00;;
14191;SDS011;7177;48.572;7.838;2022-12-24T08:20:56;15.30;;;3.10;;
14191;SDS011;7177;48.572;7.838;2022-12-24T08:23:21;15.53;;;3.50;;
14191;SDS011;7177;48.572;7.838;2022-12-24T08:25:47;13.73;;;3.43;;
14191;SDS011;7177;48.572;7.838;2022-12-24T08:28:14;10.07;;;3.37;;
14191;SDS011;7177;48.572;7.838;2022-12-24T08:30:42;14.57;;;4.40;;
14191;SDS011;7177;48.572;7.838;2022-12-24T08:33:08;13.97;;;3.60;;
14191;SDS011;7177;48.572;7.838;2022-12-24T08:35:33;19.00;;;3.93;;
14191;SDS011;7177;48.572;7.838;2022-12-24T08:37:59;11.50;;;3.20;;
14191;SDS011;7177;48.572;7.838;2022-12-24T08:40:24;13.63;;;2.93;;
14191;SDS011;7177;48.572;7.838;2022-12-24T08:42:50;17.63;;;4.17;;
14191;SDS011;7177;48.572;7.838;2022-12-24T08:45:16;12.27;;;3.20;;
14191;SDS011;7177;48.572;7.838;2022-12-24T08:47:42;11.70;;;3.47;;
14191;SDS011;7177;48.572;7.838;2022-12-24T08:50:07;13.70;;;3.07;;
14191;SDS011;7177;48.572;7.838;2022-12-24T08:52:33;11.57;;;3.77;;
14191;SDS011;7177;48.572;7.838;2022-12-24T08:54:59;15.10;;;3.70;;
14191;SDS011;7177;48.572;7.838;2022-12-24T08:57:25;17.33;;;3.60;;
14191;SDS011;7177;48.572;7.838;2022-12-24T08:59:50;12.13;;;3.33;;
14191;SDS011;7177;48.572;7.838;2022-12-24T09:02:16;12.90;;;4.37;;
14191;SDS011;7177;48.572;7.838;2022-12-24T09:04:41;11.97;;;4.20;;
14191;SDS011;7177;48.572;7.838;2022-12-24T09:07:07;12.60;;;3.40;;
14191;SDS011;7177;48.572;7.838;2022-12-24T09:09:33;18.37;;;4.17;;
14191;SDS011;7177;48.572;7.838;2022-12-24T09:12:00;17.60;;;4.20;;
14191;SDS011;7177;48.572;7.838;2022-12-24T09:14:25;11.70;;;3.03;;
14191;SDS011;7177;48.572;7.838;2022-12-24T09:16:51;11.17;;;3.20;;
14191;SDS011;7177;48.572;7.838;2022-12-24T09:19:16;12.33;;;3.83;;
14191;SDS011;7177;48.572;7.838;2022-12-24T09:21:42;22.20;;;4.27;;
14191;SDS011;7177;48.572;7.838;2022-12-24T09:24:08;27.60;;;5.13;;
14191;SDS011;7177;48.572;7.838;2022-12-24T09:26:33;17.07;;;3.30;;
14191;SDS011;7177;48.572;7.838;2022-12-24T09:29:00;15.10;;;3.27;;
14191;SDS011;7177;48.572;7.838;2022-12-24T09:31:26;14.90;;;3.33;;
14191;SDS011;7177;48.572;7.838;2022-12-24T09:33:52;12.93;;;3.63;;
14191;SDS011;7177;48.572;7.838;2022-12-24T09:36:18;22.53;;;3.80;;
14191;SDS011;7177;48.572;7.838;2022-12-24T09:38:44;12.83;;;3.10;;
14191;SDS011;7177;48.572;7.838;2022-12-24T09:41:14;17.60;;;4.00;;
14191;SDS011;7177;48.572;7.838;2022-12-24T09:43:48;15.50;;;5.67;;
14191;SDS011;7177;48.572;7.838;2022-12-24T09:46:21;19.23;;;3.73;;
14191;SDS011;7177;48.572;7.838;2022-12-24T09:48:53;10.43;;;2.97;;
14191;SDS011;7177;48.572;7.838;2022-12-24T09:51:30;10.03;;;3.73;;
14191;SDS011;7177;48.572;7.838;2022-12-24T09:54:14;11.23;;;3.57;;
14191;SDS011;7177;48.572;7.838;2022-12-24T09:56:50;13.63;;;3.10;;
14191;SDS011;7177;48.572;7.838;2022-12-24T09:59:22;14.90;;;3.50;;
14191;SDS011;7177;48.572;7.838;2022-12-24T10:01:50;12.47;;;3.43;;
14191;SDS011;7177;48.572;7.838;2022-12-24T10:04:18;13.57;;;3.37;;
14191;SDS011;7177;48.572;7.838;2022-12-24T10:06:52;14.70;;;3.97;;
14191;SDS011;7177;48.572;7.838;2022-12-24T10:09:32;14.33;;;3.57;;
14191;SDS011;7177;48.572;7.838;2022-12-24T10:23:16;14.20;;;3.53;;
14191;SDS011;7177;48.572;7.838;2022-12-24T10:26:08;14.10;;;3.60;;
14191;SDS011;7177;48.572;7.838;2022-12-24T10:29:00;13.50;;;3.20;;
14191;SDS011;7177;48.572;7.838;2022-12-24T10:31:34;14.40;;;3.67;;
14191;SDS011;7177;48.572;7.838;2022-12-24T10:34:11;10.57;;;3.17;;
14191;SDS011;7177;48.572;7.838;2022-12-24T10:36:41;7.73;;;2.87;;
14191;SDS011;7177;48.572;7.838;2022-12-24T10:39:11;20.13;;;3.57;;
14191;SDS011;7177;48.572;7.838;2022-12-24T10:41:45;10.23;;;3.23;;
14191;SDS011;7177;48.572;7.838;2022-12-24T10:44:15;15.43;;;3.23;;
14191;SDS011;7177;48.572;7.838;2022-12-24T10:46:44;9.90;;;3.50;;
14191;SDS011;7177;48.572;7.838;2022-12-24T10:49:12;12.80;;;3.83;;
14191;SDS011;7177;48.572;7.838;2022-12-24T10:51:49;19.57;;;3.90;;
14191;SDS011;7177;48.572;7.838;2022-12-24T10:56:49;16.00;;;3.60;;
14191;SDS011;7177;48.572;7.838;2022-12-24T11:02:08;13.80;;;3.20;;
14191;SDS011;7177;48.572;7.838;2022-12-24T11:04:56;12.50;;;3.17;;
14191;SDS011;7177;48.572;7.838;2022-12-24T11:07:24;11.47;;;3.30;;
14191;SDS011;7177;48.572;7.838;2022-12-24T11:10:00;11.47;;;3.47;;
14191;SDS011;7177;48.572;7.838;2022-12-24T11:12:32;15.87;;;3.33;;
14191;SDS011;7177;48.572;7.838;2022-12-24T11:15:02;14.53;;;3.50;;
14191;SDS011;7177;48.572;7.838;2022-12-24T11:17:57;14.23;;;2.90;;
14191;SDS011;7177;48.572;7.838;2022-12-24T11:20:27;11.77;;;3.17;;
14191;SDS011;7177;48.572;7.838;2022-12-24T11:22:54;10.23;;;2.70;;
14191;SDS011;7177;48.572;7.838;2022-12-24T11:25:21;12.50;;;3.23;;
14191;SDS011;7177;48.572;7.838;2022-12-24T11:27:53;13.27;;;4.20;;
14191;SDS011;7177;48.572;7.838;2022-12-24T11:30:21;14.40;;;3.30;;
14191;SDS011;7177;48.572;7.838;2022-12-24T11:33:13;9.27;;;3.00;;
14191;SDS011;7177;48.572;7.838;2022-12-24T11:35:40;7.53;;;2.53;;
14191;SDS011;7177;48.572;7.838;2022-12-24T11:38:10;10.93;;;3.17;;
14191;SDS011;7177;48.572;7.838;2022-12-24T11:40:48;8.23;;;2.93;;
14191;SDS011;7177;48.572;7.838;2022-12-24T11:43:21;9.97;;;3.13;;
14191;SDS011;7177;48.572;7.838;2022-12-24T11:45:48;15.63;;;4.50;;
14191;SDS011;7177;48.572;7.838;2022-12-24T11:48:31;10.33;;;3.40;;
14191;SDS011;7177;48.572;7.838;2022-12-24T11:51:02;11.60;;;2.97;;
14191;SDS011;7177;48.572;7.838;2022-12-24T11:53:37;11.37;;;2.93;;
14191;SDS011;7177;48.572;7.838;2022-12-24T11:56:23;9.97;;;3.10;;
14191;SDS011;7177;48.572;7.838;2022-12-24T12:04:16;8.00;;;2.97;;
14191;SDS011;7177;48.572;7.838;2022-12-24T12:09:23;9.43;;;3.10;;
14191;SDS011;7177;48.572;7.838;2022-12-24T12:12:04;11.67;;;3.53;;
14191;SDS011;7177;48.572;7.838;2022-12-24T12:14:35;17.33;;;3.50;;
14191;SDS011;7177;48.572;7.838;2022-12-24T12:17:13;12.33;;;3.17;;
14191;SDS011;7177;48.572;7.838;2022-12-24T12:20:05;8.47;;;2.73;;
14191;SDS011;7177;48.572;7.838;2022-12-24T12:22:42;10.53;;;3.00;;
14191;SDS011;7177;48.572;7.838;2022-12-24T12:25:29;11.40;;;3.00;;
14191;SDS011;7177;48.572;7.838;2022-12-24T12:28:01;9.20;;;3.10;;
14191;SDS011;7177;48.572;7.838;2022-12-24T12:30:30;10.67;;;3.40;;
14191;SDS011;7177;48.572;7.838;2022-12-24T12:35:49;14.63;;;3.43;;
14191;SDS011;7177;48.572;7.838;2022-12-24T12:38:20;8.40;;;2.70;;
14191;SDS011;7177;48.572;7.838;2022-12-24T12:51:42;13.07;;;4.27;;
14191;SDS011;7177;48.572;7.838;2022-12-24T12:54:25;12.27;;;3.97;;
14191;SDS011;7177;48.572;7.838;2022-12-24T12:57:03;11.53;;;4.37;;
14191;SDS011;7177;48.572;7.838;2022-12-24T12:59:37;16.13;;;4.30;;
14191;SDS011;7177;48.572;7.838;2022-12-24T13:02:17;12.67;;;4.20;;
14191;SDS011;7177;48.572;7.838;2022-12-24T13:04:55;9.43;;;4.27;;
14191;SDS011;7177;48.572;7.838;2022-12-24T13:07:38;11.00;;;3.93;;
14191;SDS011;7177;48.572;7.838;2022-12-24T13:13:30;12.13;;;4.07;;
14191;SDS011;7177;48.572;7.838;2022-12-24T13:16:10;10.80;;;4.20;;
14191;SDS011;7177;48.572;7.838;2022-12-24T13:19:10;12.80;;;4.30;;
14191;SDS011;7177;48.572;7.838;2022-12-24T13:21:54;13.43;;;3.97;;
14191;SDS011;7177;48.572;7.838;2022-12-24T13:24:21;10.27;;;4.23;;
14191;SDS011;7177;48.572;7.838;2022-12-24T13:29:50;12.17;;;3.97;;
14191;SDS011;7177;48.572;7.838;2022-12-24T13:34:50;20.33;;;5.53;;
14191;SDS011;7177;48.572;7.838;2022-12-24T13:37:22;14.20;;;4.90;;
14191;SDS011;7177;48.572;7.838;2022-12-24T13:42:50;13.03;;;4.57;;
14191;SDS011;7177;48.572;7.838;2022-12-24T13:50:44;10.00;;;3.73;;
14191;SDS011;7177;48.572;7.838;2022-12-24T13:53:22;11.80;;;4.87;;
14191;SDS011;7177;48.572;7.838;2022-12-24T13:55:53;10.97;;;4.13;;
14191;SDS011;7177;48.572;7.838;2022-12-24T13:58:19;13.87;;;4.60;;
14191;SDS011;7177;48.572;7.838;2022-12-24T14:03:39;10.63;;;3.77;;
14191;SDS011;7177;48.572;7.838;2022-12-24T14:06:10;10.97;;;3.93;;
14191;SDS011;7177;48.572;7.838;2022-12-24T14:08:58;12.10;;;3.73;;
14191;SDS011;7177;48.572;7.838;2022-12-24T14:14:26;13.73;;;3.83;;
14191;SDS011;7177;48.572;7.838;2022-12-24T14:16:58;8.90;;;3.87;;
14191;SDS011;7177;48.572;7.838;2022-12-24T14:19:28;9.00;;;3.83;;
14191;SDS011;7177;48.572;7.838;2022-12-24T14:22:04;10.33;;;4.30;;
14191;SDS011;7177;48.572;7.838;2022-12-24T14:24:45;12.63;;;3.60;;
14191;SDS011;7177;48.572;7.838;2022-12-24T14:30:04;15.10;;;4.97;;
14191;SDS011;7177;48.572;7.838;2022-12-24T14:32:37;8.20;;;3.20;;
14191;SDS011;7177;48.572;7.838;2022-12-24T14:38:25;12.13;;;4.30;;
14191;SDS011;7177;48.572;7.838;2022-12-24T14:40:51;12.20;;;3.90;;
14191;SDS011;7177;48.572;7.838;2022-12-24T14:50:23;18.07;;;5.80;;
14191;SDS011;7177;48.572;7.838;2022-12-24T14:54:59;10.43;;;4.80;;
14191;SDS011;7177;48.572;7.838;2022-12-24T14:57:25;12.93;;;5.10;;
14191;SDS011;7177;48.572;7.838;2022-12-24T15:05:03;17.50;;;5.23;;
14191;SDS011;7177;48.572;7.838;2022-12-24T15:07:34;10.77;;;4.43;;
14191;SDS011;7177;48.572;7.838;2022-12-24T15:10:04;14.73;;;5.30;;
14191;SDS011;7177;48.572;7.838;2022-12-24T15:12:41;8.50;;;4.00;;
14191;SDS011;7177;48.572;7.838;2022-12-24T15:15:13;14.77;;;4.73;;
14191;SDS011;7177;48.572;7.838;2022-12-24T15:17:39;10.03;;;4.67;;
14191;SDS011;7177;48.572;7.838;2022-12-24T15:20:06;6.90;;;3.20;;
14191;SDS011;7177;48.572;7.838;2022-12-24T15:22:35;8.83;;;3.90;;
14191;SDS011;7177;48.572;7.838;2022-12-24T15:25:01;6.03;;;3.20;;
14191;SDS011;7177;48.572;7.838;2022-12-24T15:27:31;11.40;;;3.37;;
14191;SDS011;7177;48.572;7.838;2022-12-24T15:29:57;4.80;;;3.07;;
14191;SDS011;7177;48.572;7.838;2022-12-24T15:32:29;8.53;;;3.60;;
14191;SDS011;7177;48.572;7.838;2022-12-24T15:34:54;6.47;;;3.10;;
14191;SDS011;7177;48.572;7.838;2022-12-24T15:37:20;8.53;;;3.80;;
14191;SDS011;7177;48.572;7.838;2022-12-24T15:40:07;11.60;;;4.47;;
14191;SDS011;7177;48.572;7.838;2022-12-24T15:42:40;7.47;;;4.27;;
14191;SDS011;7177;48.572;7.838;2022-12-24T15:45:11;8.57;;;4.77;;
14191;SDS011;7177;48.572;7.838;2022-12-24T15:47:44;8.73;;;4.20;;
14191;SDS011;7177;48.572;7.838;2022-12-24T15:50:14;11.20;;;4.70;;
14191;SDS011;7177;48.572;7.838;2022-12-24T15:52:45;9.73;;;4.17;;
14191;SDS011;7177;48.572;7.838;2022-12-24T15:55:32;7.93;;;3.67;;
14191;SDS011;7177;48.572;7.838;2022-12-24T15:58:01;6.33;;;2.90;;
14191;SDS011;7177;48.572;7.838;2022-12-24T16:03:33;8.50;;;3.00;;
14191;SDS011;7177;48.572;7.838;2022-12-24T16:06:04;7.67;;;3.30;;
14191;SDS011;7177;48.572;7.838;2022-12-24T16:08:35;7.40;;;3.03;;
14191;SDS011;7177;48.572;7.838;2022-12-24T16:13:29;12.33;;;3.53;;
14191;SDS011;7177;48.572;7.838;2022-12-24T16:15:58;6.83;;;3.37;;
14191;SDS011;7177;48.572;7.838;2022-12-24T16:18:27;7.07;;;3.40;;
14191;SDS011;7177;48.572;7.838;2022-12-24T16:20:57;13.37;;;4.53;;
14191;SDS011;7177;48.572;7.838;2022-12-24T16:23:23;7.50;;;3.47;;
14191;SDS011;7177;48.572;7.838;2022-12-24T16:25:53;9.33;;;3.87;;
14191;SDS011;7177;48.572;7.838;2022-12-24T16:28:18;8.60;;;4.17;;
14191;SDS011;7177;48.572;7.838;2022-12-24T16:30:45;12.03;;;4.80;;
14191;SDS011;7177;48.572;7.838;2022-12-24T16:33:12;8.20;;;4.17;;
14191;SDS011;7177;48.572;7.838;2022-12-24T16:35:39;9.67;;;4.20;;
14191;SDS011;7177;48.572;7.838;2022-12-24T16:38:05;11.43;;;4.27;;
14191;SDS011;7177;48.572;7.838;2022-12-24T16:40:31;10.50;;;4.60;;
14191;SDS011;7177;48.572;7.838;2022-12-24T16:42:56;7.43;;;4.57;;
14191;SDS011;7177;48.572;7.838;2022-12-24T16:45:41;13.47;;;5.30;;
14191;SDS011;7177;48.572;7.838;2022-12-24T16:48:10;12.07;;;4.70;;
14191;SDS011;7177;48.572;7.838;2022-12-24T16:50:46;11.47;;;4.60;;
14191;SDS011;7177;48.572;7.838;2022-12-24T16:53:12;8.00;;;3.87;;
14191;SDS011;7177;48.572;7.838;2022-12-24T16:55:42;11.60;;;4.10;;